Time;durP1;ratioP1;P1;durP2;ratioP2;P2;SDS_P1;SDS_P2;PMS_P1;PMS_P2;Temp;Humidity;BMP_temperature;BMP_pressure;BME280_temperature;BME280_humidity;BME280_pressure;Samples;Min_cycle;Max_cycle;Signal;HPM_P1;HPM_P2
2022/01/24 00:00:18;;;;;;;5.70;5.18;;;;;;;2.86;75.54;102089.22;5085175;28;20388;-82
2022/01/24 00:02:45;;;;;;;6.43;5.63;;;;;;;2.86;75.00;102083.88;5082359;28;20503;-82
2022/01/24 00:05:12;;;;;;;8.23;5.63;;;;;;;2.87;75.42;102084.69;5085526;28;20906;-82
2022/01/24 00:07:37;;;;;;;7.28;5.88;;;;;;;2.86;75.36;102081.19;5085399;28;20471;-82
2022/01/24 00:10:08;;;;;;;7.30;5.83;;;;;;;2.84;75.58;102076.97;5078195;28;20487;-82
2022/01/24 00:13:14;;;;;;;7.07;6.38;;;;;;;2.82;75.58;102065.59;5091297;28;20398;-81
2022/01/24 00:18:08;;;;;;;6.77;6.07;;;;;;;2.79;75.99;102069.41;5089100;28;20406;-81
2022/01/24 00:26:44;;;;;;;7.40;6.40;;;;;;;2.72;75.97;102054.97;5095119;28;20564;-81
2022/01/24 00:29:05;;;;;;;7.47;6.15;;;;;;;2.71;76.06;102055.09;5079873;28;20725;-81
2022/01/24 00:31:30;;;;;;;8.68;6.63;;;;;;;2.68;76.31;102050.06;5093490;28;20488;-81
2022/01/24 00:33:56;;;;;;;8.70;6.23;;;;;;;2.67;76.38;102048.41;5080080;28;20489;-81
2022/01/24 00:36:21;;;;;;;7.47;6.53;;;;;;;2.66;76.66;102054.75;5079537;28;20404;-81
2022/01/24 00:38:46;;;;;;;7.32;6.57;;;;;;;2.63;76.51;102058.56;5089634;28;20942;-81
2022/01/24 00:41:15;;;;;;;8.43;6.97;;;;;;;2.63;76.40;102051.38;5086433;28;20479;-81
2022/01/24 00:46:28;;;;;;;9.07;7.28;;;;;;;2.59;76.51;102049.16;5076218;28;20454;-81
2022/01/24 00:56:51;;;;;;;9.50;6.65;;;;;;;2.49;77.13;102033.19;5078894;28;20406;-81
2022/01/24 00:59:16;;;;;;;7.60;6.28;;;;;;;2.47;77.33;102032.50;5102441;28;20426;-81
2022/01/24 01:01:44;;;;;;;8.32;6.47;;;;;;;2.45;77.51;102033.66;5085943;28;20510;-81
2022/01/24 01:04:09;;;;;;;7.93;6.47;;;;;;;2.43;77.71;102038.31;5075002;28;20755;-81
2022/01/24 01:06:38;;;;;;;8.37;6.27;;;;;;;2.46;77.45;102038.03;5106934;28;20382;-81
2022/01/24 01:19:59;;;;;;;7.77;6.77;;;;;;;2.43;77.83;102043.69;5097936;28;20394;-82
2022/01/24 01:22:24;;;;;;;7.18;6.45;;;;;;;2.47;77.52;102042.38;5075918;28;20430;-81
2022/01/24 01:24:53;;;;;;;9.37;6.33;;;;;;;2.42;77.49;102042.84;5082724;28;20451;-82
2022/01/24 01:27:24;;;;;;;9.60;7.28;;;;;;;2.39;77.74;102050.31;5076291;28;20838;-80
2022/01/24 01:29:57;;;;;;;9.03;6.80;;;;;;;2.35;77.94;102054.28;5075152;28;20751;-82
2022/01/24 01:35:36;;;;;;;7.75;6.75;;;;;;;2.34;77.83;102060.66;5060748;28;20418;-82
2022/01/24 01:38:25;;;;;;;8.32;7.03;;;;;;;2.33;77.95;102058.97;5076908;28;20406;-82
2022/01/24 01:57:11;;;;;;;7.28;6.57;;;;;;;2.27;78.25;102051.56;5084413;28;20525;-82
2022/01/24 01:59:36;;;;;;;6.75;6.15;;;;;;;2.29;77.98;102046.88;5092191;28;20928;-82
2022/01/24 02:02:02;;;;;;;9.60;6.47;;;;;;;2.28;78.41;102053.22;5089896;28;20410;-82
2022/01/24 02:04:27;;;;;;;8.25;6.80;;;;;;;2.28;78.03;102055.88;5078742;28;20724;-82
2022/01/24 02:06:52;;;;;;;10.57;7.47;;;;;;;2.25;78.60;102058.88;5084700;28;20881;-80
2022/01/24 02:09:18;;;;;;;7.90;7.07;;;;;;;2.20;78.86;102056.66;5070405;28;20447;-82
2022/01/24 02:11:43;;;;;;;10.27;7.13;;;;;;;2.22;78.92;102064.53;5081363;28;20407;-82
2022/01/24 02:14:16;;;;;;;9.25;7.32;;;;;;;2.13;78.90;102060.09;5071663;28;20392;-82
2022/01/24 02:21:46;;;;;;;11.23;8.23;;;;;;;2.13;79.22;102062.75;5081196;28;20458;-82
2022/01/24 02:24:13;;;;;;;11.30;7.80;;;;;;;2.10;79.25;102055.88;5077463;28;20416;-81
2022/01/24 02:26:40;;;;;;;9.25;8.10;;;;;;;2.08;79.78;102060.53;5072416;28;20474;-82
2022/01/24 02:29:48;;;;;;;10.65;7.57;;;;;;;2.06;79.81;102054.50;5077993;28;20407;-80
2022/01/24 02:31:57;;;;;;;10.30;8.25;;;;;;;2.08;79.48;102048.00;5084670;28;20449;-81
2022/01/24 02:34:26;;;;;;;9.10;7.88;;;;;;;2.08;79.25;102042.66;5084152;28;20402;-82
2022/01/24 02:36:54;;;;;;;10.32;7.45;;;;;;;2.01;79.76;102046.91;5074694;28;20445;-81
2022/01/24 02:53:09;;;;;;;7.53;6.38;;;;;;;1.97;80.20;102037.53;5087171;28;20520;-82
2022/01/24 02:55:36;;;;;;;9.85;7.30;;;;;;;2.00;79.59;102031.03;5085045;28;20419;-82
2022/01/24 02:58:01;;;;;;;11.38;6.75;;;;;;;1.99;79.83;102032.88;5092055;28;20398;-82
2022/01/24 03:00:27;;;;;;;8.93;7.20;;;;;;;1.98;79.80;102027.66;5086290;28;20568;-82
2022/01/24 03:02:52;;;;;;;7.90;6.87;;;;;;;1.98;79.94;102031.19;5073957;28;20416;-82
2022/01/24 03:05:17;;;;;;;9.25;7.22;;;;;;;1.95;79.92;102033.31;5074500;28;20418;-82
2022/01/24 03:07:43;;;;;;;9.47;7.43;;;;;;;1.93;79.70;102029.97;5071364;28;20392;-81
2022/01/24 03:10:14;;;;;;;9.32;7.38;;;;;;;1.86;79.84;102035.06;5092401;28;20395;-82
2022/01/24 03:12:44;;;;;;;9.60;7.35;;;;;;;1.80;79.98;102030.31;5102191;28;20482;-80
2022/01/24 03:15:10;;;;;;;10.70;7.95;;;;;;;1.79;80.29;102025.97;5077739;28;20403;-81
2022/01/24 03:17:36;;;;;;;12.40;8.65;;;;;;;1.74;80.34;102020.25;5088342;28;20421;-81
2022/01/24 03:20:03;;;;;;;12.65;8.30;;;;;;;1.72;80.32;102021.34;5070780;28;21113;-82
2022/01/24 03:22:29;;;;;;;14.10;8.68;;;;;;;1.74;80.31;102019.41;5078581;28;20873;-81
2022/01/24 03:24:54;;;;;;;14.85;8.80;;;;;;;1.72;80.93;102024.88;5083348;28;20410;-81
2022/01/24 03:27:19;;;;;;;14.17;8.93;;;;;;;1.72;80.65;102024.88;5092093;28;20394;-81
2022/01/24 03:29:45;;;;;;;14.27;9.50;;;;;;;1.75;80.51;102016.56;5078907;28;20451;-81
2022/01/24 03:32:10;;;;;;;12.17;8.93;;;;;;;1.76;80.54;102023.59;5106828;28;20890;-81
2022/01/24 03:34:35;;;;;;;11.80;8.43;;;;;;;1.78;80.75;102021.59;5092721;28;20560;-81
2022/01/24 03:37:01;;;;;;;11.10;8.37;;;;;;;1.83;80.25;102021.16;5083520;28;20742;-81
2022/01/24 03:39:26;;;;;;;10.47;8.50;;;;;;;1.79;80.73;102028.63;5075816;28;20395;-81
2022/01/24 03:41:51;;;;;;;10.83;8.53;;;;;;;1.77;80.50;102011.06;5089478;28;20835;-81
2022/01/24 03:44:18;;;;;;;10.48;8.55;;;;;;;1.74;80.45;102012.22;5093328;28;20889;-81
2022/01/24 03:49:45;;;;;;;11.00;8.27;;;;;;;1.68;80.58;102018.13;5071770;28;20456;-81
2022/01/24 03:52:18;;;;;;;8.25;7.35;;;;;;;1.69;80.95;102021.66;5075553;28;20476;-81
2022/01/24 03:54:45;;;;;;;10.85;8.27;;;;;;;1.65;80.87;102018.44;5075755;28;20908;-81
2022/01/24 03:57:12;;;;;;;10.23;8.18;;;;;;;1.70;81.01;102015.34;5078507;28;20461;-81
2022/01/24 03:59:38;;;;;;;9.53;8.37;;;;;;;1.66;80.43;102020.13;5079540;28;20940;-81
2022/01/24 04:02:03;;;;;;;11.37;7.87;;;;;;;1.67;80.50;102016.47;5085445;28;20502;-81
2022/01/24 04:04:29;;;;;;;10.65;8.23;;;;;;;1.68;80.89;102017.31;5088674;28;20469;-81
2022/01/24 04:06:55;;;;;;;9.68;7.88;;;;;;;1.66;80.77;102013.94;5081326;28;20430;-81
2022/01/24 04:09:21;;;;;;;11.00;8.57;;;;;;;1.61;80.98;102018.91;5077027;28;20497;-81
2022/01/24 04:11:50;;;;;;;12.93;8.63;;;;;;;1.61;81.18;102019.75;5084383;28;20403;-81
2022/01/24 04:14:36;;;;;;;9.25;8.07;;;;;;;1.54;80.90;102014.16;5082163;28;20442;-81
2022/01/24 04:22:13;;;;;;;9.27;8.27;;;;;;;1.58;81.01;102016.53;5083747;28;20447;-81
2022/01/24 04:24:39;;;;;;;10.30;7.75;;;;;;;1.58;81.12;102018.19;5075393;28;20565;-81
2022/01/24 04:27:05;;;;;;;11.77;8.50;;;;;;;1.59;80.98;102013.69;5080938;28;20898;-81
2022/01/24 04:29:31;;;;;;;9.15;7.88;;;;;;;1.61;80.78;102013.56;5084050;28;20419;-81
2022/01/24 04:31:56;;;;;;;12.50;8.50;;;;;;;1.56;80.85;102017.50;5078090;28;20415;-81
2022/01/24 04:34:22;;;;;;;8.57;7.68;;;;;;;1.55;80.75;102028.34;5074033;28;20449;-81
2022/01/24 04:36:48;;;;;;;10.95;7.88;;;;;;;1.56;80.87;102017.50;5072604;28;20409;-81
2022/01/24 04:39:14;;;;;;;10.70;8.48;;;;;;;1.53;80.98;102015.13;5070271;28;20400;-81
2022/01/24 04:41:43;;;;;;;9.27;7.72;;;;;;;1.53;81.04;102022.31;5081380;28;20465;-81
2022/01/24 04:44:44;;;;;;;10.35;8.07;;;;;;;1.47;80.95;102023.75;5082922;28;20402;-81
2022/01/24 04:53:00;;;;;;;14.13;10.15;;;;;;;1.40;81.13;102028.00;5091482;28;20473;-81
2022/01/24 04:55:25;;;;;;;19.30;13.48;;;;;;;1.38;81.11;102015.78;5075545;28;20418;-81
2022/01/24 04:57:52;;;;;;;18.63;12.57;;;;;;;1.40;81.50;102027.16;5083429;28;20409;-82
2022/01/24 05:00:17;;;;;;;20.10;14.20;;;;;;;1.38;81.38;102029.13;5076356;28;20422;-81
2022/01/24 05:02:42;;;;;;;17.23;11.27;;;;;;;1.35;81.35;102030.25;5073686;28;20775;-81
2022/01/24 05:05:12;;;;;;;16.50;10.23;;;;;;;1.33;81.30;102034.06;5073960;28;20882;-81
2022/01/24 05:07:37;;;;;;;11.17;9.30;;;;;;;1.31;81.43;102034.22;5078213;28;20393;-81
2022/01/24 05:10:13;;;;;;;11.13;9.13;;;;;;;1.30;81.80;102024.53;5086446;28;20410;-81
2022/01/24 05:25:57;;;;;;;11.60;8.57;;;;;;;1.19;81.74;102042.53;5071528;28;20942;-81
2022/01/24 05:28:23;;;;;;;10.55;8.50;;;;;;;1.17;82.09;102037.34;5077136;28;20399;-81
2022/01/24 05:30:49;;;;;;;12.55;9.65;;;;;;;1.15;81.92;102041.16;5077579;28;20736;-81
2022/01/24 05:33:15;;;;;;;11.98;10.02;;;;;;;1.15;82.13;102033.16;5070788;28;20394;-81
2022/01/24 05:35:41;;;;;;;13.57;9.98;;;;;;;1.12;82.41;102036.13;5086809;28;20947;-81
2022/01/24 05:38:06;;;;;;;11.50;9.10;;;;;;;1.09;82.52;102031.06;5075479;28;20728;-81
2022/01/24 05:40:32;;;;;;;12.35;10.40;;;;;;;1.06;82.77;102029.50;5080696;28;20415;-81
2022/01/24 05:42:57;;;;;;;14.80;10.85;;;;;;;1.06;82.70;102032.19;5072539;28;20418;-81
2022/01/24 05:45:23;;;;;;;13.70;10.83;;;;;;;1.06;82.51;102032.19;5078803;28;20792;-81
2022/01/24 05:47:48;;;;;;;13.48;10.25;;;;;;;1.07;82.74;102031.22;5083592;28;20410;-81
2022/01/24 05:50:14;;;;;;;14.52;10.45;;;;;;;1.10;82.12;102035.41;5081925;28;20887;-83
2022/01/24 05:52:40;;;;;;;12.70;10.02;;;;;;;1.06;82.40;102032.19;5090332;28;20783;-81
2022/01/24 05:55:05;;;;;;;15.43;11.13;;;;;;;1.09;82.42;102036.41;5075485;28;20399;-81
2022/01/24 05:57:31;;;;;;;12.63;9.60;;;;;;;1.06;82.37;102040.19;5076063;28;20399;-82
2022/01/24 05:59:56;;;;;;;12.63;9.73;;;;;;;1.07;82.69;102035.69;5074475;28;20420;-81
2022/01/24 06:02:22;;;;;;;12.05;9.45;;;;;;;0.99;83.00;102034.59;5073601;28;20416;-82
2022/01/24 06:04:47;;;;;;;13.77;10.32;;;;;;;0.98;83.03;102032.94;5084566;28;20411;-81
2022/01/24 06:07:13;;;;;;;12.38;9.85;;;;;;;0.97;83.07;102038.41;5086134;28;20411;-80
2022/01/24 06:09:38;;;;;;;14.40;10.23;;;;;;;1.01;82.69;102037.13;5084819;28;20446;-79
2022/01/24 06:12:04;;;;;;;11.40;10.17;;;;;;;0.99;83.02;102033.75;5080309;28;20763;-80
2022/01/24 06:14:30;;;;;;;14.15;10.43;;;;;;;0.96;82.92;102042.03;5094256;28;20465;-80
2022/01/24 06:16:55;;;;;;;13.37;10.13;;;;;;;0.95;82.85;102043.06;5087805;28;20549;-80
2022/01/24 06:19:21;;;;;;;12.47;10.20;;;;;;;0.98;82.76;102048.09;5074108;28;20436;-80
2022/01/24 06:21:46;;;;;;;13.73;10.60;;;;;;;0.97;82.78;102041.91;5092122;28;20391;-80
2022/01/24 06:24:12;;;;;;;13.67;10.37;;;;;;;0.97;82.88;102041.06;5096911;28;20401;-80
2022/01/24 06:26:37;;;;;;;15.13;10.57;;;;;;;0.90;83.01;102040.81;5098207;28;20930;-80
2022/01/24 06:29:03;;;;;;;14.98;11.63;;;;;;;0.87;83.33;102056.25;5099697;28;20473;-80
2022/01/24 06:31:28;;;;;;;12.68;10.15;;;;;;;0.85;83.25;102053.75;5073856;28;20408;-80
2022/01/24 06:33:54;;;;;;;14.82;10.23;;;;;;;0.85;83.10;102056.41;5065152;28;20436;-80
2022/01/24 06:36:20;;;;;;;12.63;10.18;;;;;;;0.83;83.31;102053.03;5088250;28;20463;-80
2022/01/24 06:38:45;;;;;;;15.15;10.82;;;;;;;0.87;83.19;102054.44;5079705;28;20396;-80
2022/01/24 06:41:10;;;;;;;16.52;11.63;;;;;;;0.93;83.17;102053.84;5072082;28;20415;-80
2022/01/24 06:43:36;;;;;;;16.57;12.50;;;;;;;0.97;82.64;102052.59;5084360;28;20445;-80
2022/01/24 06:46:01;;;;;;;22.27;15.43;;;;;;;1.01;82.63;102056.66;5085464;28;20616;-80
2022/01/24 06:48:27;;;;;;;19.03;13.97;;;;;;;0.92;83.01;102057.50;5089221;28;20878;-80
2022/01/24 06:50:53;;;;;;;15.73;12.20;;;;;;;0.92;82.86;102059.34;5076277;28;20411;-80
2022/01/24 06:53:19;;;;;;;15.33;12.33;;;;;;;0.89;82.99;102063.13;5072369;28;20440;-79
2022/01/24 06:55:44;;;;;;;15.07;11.40;;;;;;;0.85;83.36;102058.25;5075461;28;20491;-79
2022/01/24 06:58:09;;;;;;;16.03;12.87;;;;;;;0.92;83.50;102062.03;5082373;28;20485;-80
2022/01/24 07:00:35;;;;;;;19.55;12.98;;;;;;;0.97;82.87;102060.59;5081812;28;20439;-82
2022/01/24 07:03:00;;;;;;;17.57;13.10;;;;;;;1.00;82.91;102064.81;5098997;28;20467;-81
2022/01/24 07:05:27;;;;;;;15.17;11.80;;;;;;;0.94;83.16;102057.38;5091235;28;20476;-78
2022/01/24 07:07:53;;;;;;;18.08;12.20;;;;;;;0.99;82.78;102053.28;5074884;28;20472;-79
2022/01/24 07:10:18;;;;;;;22.30;14.18;;;;;;;1.02;82.60;102055.66;5086102;28;20391;-80
2022/01/24 07:12:46;;;;;;;19.25;14.60;;;;;;;1.06;82.62;102050.88;5081211;28;20390;-80
2022/01/24 07:15:15;;;;;;;18.77;13.27;;;;;;;1.04;82.29;102048.38;5071810;28;20887;-79
2022/01/24 07:20:24;;;;;;;20.97;13.07;;;;;;;1.07;82.67;102054.38;5082264;28;20484;-82
2022/01/24 07:22:49;;;;;;;18.60;13.40;;;;;;;1.01;82.54;102063.81;5080214;28;20417;-81
2022/01/24 07:25:20;;;;;;;18.13;13.40;;;;;;;0.99;82.89;102061.28;5074348;28;20407;-81
2022/01/24 07:27:45;;;;;;;17.77;13.85;;;;;;;0.94;83.08;102065.38;5074982;28;20441;-80
2022/01/24 07:30:11;;;;;;;19.70;14.50;;;;;;;0.93;83.40;102061.88;5086429;28;20406;-80
2022/01/24 07:32:36;;;;;;;18.77;14.18;;;;;;;0.95;83.28;102062.59;5080087;28;20879;-80
2022/01/24 07:35:04;;;;;;;17.40;12.80;;;;;;;0.96;83.07;102072.25;5070935;28;20407;-80
2022/01/24 07:37:30;;;;;;;16.08;12.73;;;;;;;0.99;82.85;102068.44;5074135;28;20514;-81
2022/01/24 07:39:55;;;;;;;18.50;13.30;;;;;;;1.03;83.03;102060.03;5092651;28;20863;-81
2022/01/24 07:42:51;;;;;;;17.53;14.13;;;;;;;1.08;83.11;102070.28;5094083;28;20443;-81
2022/01/24 07:45:15;;;;;;;19.63;14.83;;;;;;;1.12;82.45;102063.63;5072261;28;20486;-81
2022/01/24 07:47:49;;;;;;;19.92;15.02;;;;;;;1.13;82.79;102068.00;5083180;28;20758;-81
2022/01/24 07:50:19;;;;;;;21.75;14.95;;;;;;;1.16;82.85;102064.19;5080496;28;20408;-81
2022/01/24 07:52:44;;;;;;;19.48;13.98;;;;;;;1.20;82.22;102070.94;5072613;28;20448;-81
2022/01/24 07:55:10;;;;;;;18.30;13.67;;;;;;;1.22;82.47;102069.78;5068880;28;20501;-81
2022/01/24 07:57:35;;;;;;;18.73;13.97;;;;;;;1.23;82.26;102075.97;5077390;28;20437;-81
2022/01/24 08:00:00;;;;;;;18.43;13.23;;;;;;;1.30;82.54;102082.44;5079970;28;20403;-81
2022/01/24 08:02:26;;;;;;;15.97;12.67;;;;;;;1.31;82.53;102081.47;5072062;28;20408;-81
2022/01/24 08:04:51;;;;;;;19.60;13.87;;;;;;;1.39;81.95;102082.41;5073517;28;20415;-81
2022/01/24 08:07:16;;;;;;;16.30;12.53;;;;;;;1.39;82.14;102079.72;5075971;28;20493;-80
2022/01/24 08:09:42;;;;;;;17.57;13.27;;;;;;;1.44;82.19;102082.81;5077880;28;20762;-81
2022/01/24 08:12:10;;;;;;;18.77;13.43;;;;;;;1.49;81.72;102088.56;5081480;28;20483;-81
2022/01/24 08:14:35;;;;;;;17.07;13.17;;;;;;;1.53;82.13;102081.94;5075509;28;20404;-80
2022/01/24 08:17:02;;;;;;;15.73;12.40;;;;;;;1.56;82.09;102081.63;5070855;28;20411;-81
2022/01/24 08:19:28;;;;;;;18.55;12.82;;;;;;;1.63;81.67;102075.69;5075090;28;20415;-81
2022/01/24 08:21:53;;;;;;;16.60;13.05;;;;;;;1.70;81.34;102076.78;5088459;28;20410;-81
2022/01/24 08:24:18;;;;;;;18.90;12.43;;;;;;;1.73;81.63;102079.16;5078463;28;20394;-81
2022/01/24 08:26:44;;;;;;;16.30;11.87;;;;;;;1.74;81.56;102067.50;5080387;28;20492;-80
2022/01/24 08:29:09;;;;;;;16.00;12.10;;;;;;;1.77;81.32;102073.41;5086639;28;20399;-80
2022/01/24 08:31:36;;;;;;;18.70;12.88;;;;;;;1.82;81.64;102075.59;5103447;27;20481;-81
2022/01/24 08:34:02;;;;;;;15.50;11.80;;;;;;;1.88;81.25;102081.19;5077849;28;20407;-81
2022/01/24 08:36:28;;;;;;;16.63;12.43;;;;;;;1.99;81.10;102080.16;5076424;28;20408;-81
2022/01/24 08:38:54;;;;;;;17.58;12.68;;;;;;;2.14;80.92;102083.19;5075655;28;20402;-80
2022/01/24 08:41:38;;;;;;;16.90;11.67;;;;;;;2.39;80.61;102077.91;5076936;28;20841;-80
2022/01/24 08:44:18;;;;;;;14.07;12.00;;;;;;;2.83;78.81;102077.97;5093353;28;20402;-81
2022/01/24 08:46:45;;;;;;;16.30;12.50;;;;;;;3.09;77.73;102079.69;5072888;28;20392;-81
2022/01/24 08:49:11;;;;;;;15.93;12.43;;;;;;;3.41;76.75;102075.53;5077535;28;20431;-81
2022/01/24 08:51:36;;;;;;;16.75;13.63;;;;;;;3.66;75.36;102069.28;5079646;28;20433;-80
2022/01/24 08:54:03;;;;;;;13.73;12.27;;;;;;;3.75;74.63;102070.16;5078026;28;20447;-81
2022/01/24 08:56:29;;;;;;;23.63;18.40;;;;;;;3.65;75.21;102076.47;5072595;28;20387;-81
2022/01/24 08:58:54;;;;;;;14.27;12.43;;;;;;;3.75;75.20;102076.38;5083017;28;20436;-80
2022/01/24 09:01:19;;;;;;;14.40;11.40;;;;;;;4.07;74.18;102070.28;5086559;28;20477;-80
2022/01/24 09:03:45;;;;;;;12.77;11.47;;;;;;;4.13;73.51;102070.47;5080045;28;20458;-80
2022/01/24 09:06:17;;;;;;;15.87;12.40;;;;;;;4.25;73.40;102068.28;5076723;28;20885;-81
2022/01/24 09:08:42;;;;;;;14.43;11.93;;;;;;;4.30;72.94;102079.41;5076172;28;20486;-81
2022/01/24 09:11:08;;;;;;;15.07;12.65;;;;;;;4.02;73.85;102076.13;5089308;28;20471;-80
2022/01/24 09:13:33;;;;;;;12.15;10.85;;;;;;;3.89;74.54;102075.75;5106308;28;20889;-81
2022/01/24 09:16:00;;;;;;;15.43;11.37;;;;;;;3.74;74.95;102080.06;5092939;28;20398;-80
2022/01/24 09:18:25;;;;;;;14.02;11.15;;;;;;;3.78;75.39;102070.69;5083780;28;20426;-80
2022/01/24 09:20:51;;;;;;;11.67;10.47;;;;;;;3.99;74.71;102063.03;5073441;28;20776;-80
2022/01/24 09:23:17;;;;;;;13.60;11.13;;;;;;;4.26;73.90;102069.16;5076893;28;20413;-80
2022/01/24 09:25:43;;;;;;;12.32;11.00;;;;;;;4.61;72.98;102063.50;5076713;28;20756;-81
2022/01/24 09:28:09;;;;;;;12.93;10.65;;;;;;;5.30;70.85;102062.94;5072368;28;20909;-81
2022/01/24 09:30:34;;;;;;;11.10;9.95;;;;;;;7.08;64.62;102062.75;5073395;28;20403;-81
2022/01/24 09:33:00;;;;;;;13.60;10.48;;;;;;;7.82;61.15;102059.06;5087656;28;20382;-81
2022/01/24 09:35:28;;;;;;;12.77;10.32;;;;;;;6.53;64.23;102064.91;5073291;28;20423;-81
2022/01/24 09:37:56;;;;;;;13.07;11.20;;;;;;;5.65;67.70;102062.50;5077927;28;20394;-81
2022/01/24 09:40:22;;;;;;;13.23;11.23;;;;;;;5.42;68.69;102061.56;5078805;28;20821;-80
2022/01/24 09:42:48;;;;;;;16.25;10.88;;;;;;;5.82;67.55;102068.66;5086323;28;20420;-81
2022/01/24 09:45:15;;;;;;;15.37;11.10;;;;;;;5.97;66.62;102063.38;5074310;28;20392;-81
2022/01/24 09:47:40;;;;;;;12.50;10.60;;;;;;;6.12;66.25;102070.56;5081471;28;20403;-80
2022/01/24 09:50:11;;;;;;;11.33;9.97;;;;;;;5.96;66.21;102067.94;5082480;28;20386;-81
2022/01/24 09:52:44;;;;;;;15.98;11.27;;;;;;;5.40;68.02;102077.00;5082734;28;20417;-80
2022/01/24 09:55:10;;;;;;;15.57;11.50;;;;;;;5.05;68.98;102080.94;5083509;28;20431;-80
2022/01/24 09:57:36;;;;;;;13.82;10.80;;;;;;;5.01;69.74;102071.53;5088199;28;20402;-81
2022/01/24 10:00:05;;;;;;;12.27;11.02;;;;;;;5.23;69.95;102070.84;5095300;28;20445;-80
2022/01/24 10:02:31;;;;;;;11.73;10.63;;;;;;;5.73;67.86;102069.69;5096002;28;20398;-81
2022/01/24 10:05:21;;;;;;;11.70;10.50;;;;;;;6.23;65.49;102069.31;5091522;28;20469;-81
2022/01/24 10:07:52;;;;;;;13.98;10.73;;;;;;;6.16;66.47;102063.78;5084143;28;20416;-81
2022/01/24 10:10:45;;;;;;;12.27;10.90;;;;;;;6.29;65.74;102062.38;5086657;28;20493;-82
2022/01/24 10:16:30;;;;;;;11.88;10.70;;;;;;;6.74;63.76;102060.53;5081936;28;20903;-80
2022/01/24 10:19:16;;;;;;;13.57;10.57;;;;;;;6.76;63.26;102058.50;5079386;28;20392;-80
2022/01/24 10:21:47;;;;;;;15.50;10.67;;;;;;;6.43;64.18;102064.28;5069435;28;20444;-81
2022/01/24 10:24:33;;;;;;;11.52;10.43;;;;;;;6.31;64.86;102066.56;5072126;28;20400;-80
2022/01/24 10:27:06;;;;;;;10.95;9.90;;;;;;;6.35;64.31;102048.22;5076957;28;20425;-81
2022/01/24 10:29:31;;;;;;;13.03;9.90;;;;;;;6.36;64.53;102056.09;5082211;28;20381;-80
2022/01/24 10:31:57;;;;;;;12.27;10.37;;;;;;;6.54;64.17;102039.66;5077174;28;20383;-81
2022/01/24 10:34:28;;;;;;;11.53;9.93;;;;;;;6.62;63.99;102053.03;5073834;28;20887;-80
2022/01/24 10:36:56;;;;;;;11.40;10.15;;;;;;;6.74;63.58;102054.31;5085769;28;20419;-81
2022/01/24 10:42:36;;;;;;;12.77;10.07;;;;;;;6.30;64.63;102043.34;5087406;28;20539;-83
2022/01/24 10:45:11;;;;;;;13.93;10.88;;;;;;;6.01;65.72;102051.25;5080001;28;20718;-80
2022/01/24 10:47:44;;;;;;;12.00;10.80;;;;;;;5.73;66.62;102042.78;5090179;28;20405;-80
2022/01/24 10:50:09;;;;;;;11.95;10.73;;;;;;;5.59;66.86;102052.44;5077988;28;20394;-80
2022/01/24 10:52:35;;;;;;;12.85;11.20;;;;;;;5.46;67.32;102054.00;5087496;28;20495;-80
2022/01/24 10:55:19;;;;;;;14.37;11.07;;;;;;;5.32;67.41;102043.94;5070487;28;20442;-80
2022/01/24 10:57:49;;;;;;;11.73;10.50;;;;;;;5.38;68.13;102029.81;5075604;28;20411;-79
2022/01/24 11:00:26;;;;;;;15.60;10.88;;;;;;;5.34;67.74;102037.38;5088017;28;20397;-80
2022/01/24 11:02:55;;;;;;;12.15;10.65;;;;;;;5.33;67.94;102035.72;5081973;28;20500;-79
2022/01/24 11:05:29;;;;;;;13.80;11.13;;;;;;;5.26;67.76;102031.19;5090606;28;20382;-80
2022/01/24 11:07:58;;;;;;;11.80;10.68;;;;;;;5.23;68.43;102027.84;5087719;28;20390;-81
2022/01/24 11:10:26;;;;;;;12.27;10.32;;;;;;;5.23;68.58;102038.59;5071732;28;20396;-80
2022/01/24 11:12:52;;;;;;;13.13;11.48;;;;;;;5.24;68.48;102032.19;5082786;28;20397;-81
2022/01/24 11:15:19;;;;;;;15.05;11.30;;;;;;;5.26;68.40;102036.56;5078572;28;20404;-81
2022/01/24 11:17:45;;;;;;;14.73;12.02;;;;;;;5.26;68.34;102025.81;5072370;28;20495;-80
2022/01/24 11:20:14;;;;;;;17.63;12.63;;;;;;;5.31;68.76;102032.34;5074115;28;20604;-80
2022/01/24 11:22:43;;;;;;;13.05;11.80;;;;;;;5.32;69.08;102031.34;5071351;28;20412;-80
2022/01/24 11:25:12;;;;;;;13.05;11.40;;;;;;;5.31;68.22;102026.97;5080796;28;20389;-80
2022/01/24 11:27:43;;;;;;;13.68;12.20;;;;;;;5.35;68.82;102025.63;5088215;28;20388;-80
2022/01/24 11:30:16;;;;;;;12.70;11.02;;;;;;;5.39;68.31;102029.66;5081998;28;20402;-80
2022/01/24 11:32:49;;;;;;;16.02;11.60;;;;;;;5.43;68.13;102025.63;5079236;28;20387;-80
2022/01/24 11:35:29;;;;;;;13.23;11.40;;;;;;;5.41;67.96;102027.63;5087637;28;20386;-80
2022/01/24 11:37:56;;;;;;;14.50;11.38;;;;;;;5.40;68.50;102017.88;5082892;28;20386;-80
2022/01/24 11:40:28;;;;;;;11.68;10.43;;;;;;;5.46;68.38;102033.31;5092644;28;20412;-80
2022/01/24 11:42:53;;;;;;;11.98;10.88;;;;;;;5.46;68.46;102021.72;5100127;28;20929;-80
2022/01/24 11:45:55;;;;;;;18.00;11.77;;;;;;;5.50;68.09;102015.81;5080129;28;20437;-81
2022/01/24 11:48:22;;;;;;;12.25;10.98;;;;;;;5.54;68.72;102027.06;5083662;28;20379;-80
2022/01/24 11:51:03;;;;;;;11.98;10.68;;;;;;;5.49;68.41;102016.84;5072384;28;20406;-80
2022/01/24 11:53:30;;;;;;;11.80;10.60;;;;;;;5.57;68.05;102021.34;5077717;28;20790;-81
2022/01/24 11:56:15;;;;;;;11.68;10.45;;;;;;;5.59;68.38;102022.00;5090548;28;20380;-80
2022/01/24 11:58:43;;;;;;;12.33;11.03;;;;;;;5.62;68.22;102019.81;5097815;28;20398;-80
2022/01/24 12:01:13;;;;;;;12.40;10.65;;;;;;;5.63;68.20;102008.03;5078300;28;20397;-80
2022/01/24 12:03:54;;;;;;;11.70;10.48;;;;;;;5.64;67.68;102006.19;5089100;28;20415;-80
2022/01/24 12:06:20;;;;;;;12.53;11.23;;;;;;;5.64;68.03;102004.34;5078609;28;20398;-81
2022/01/24 12:08:47;;;;;;;12.02;10.85;;;;;;;5.67;68.33;102008.50;5075145;28;20399;-80
2022/01/24 12:11:27;;;;;;;13.45;11.25;;;;;;;5.70;68.09;102009.00;5088025;28;20905;-80
2022/01/24 12:14:01;;;;;;;16.27;10.95;;;;;;;5.68;68.10;102000.28;5086207;28;20828;-79
2022/01/24 12:16:36;;;;;;;12.55;10.95;;;;;;;5.68;68.00;101999.44;5090540;28;20980;-81
2022/01/24 12:19:03;;;;;;;13.98;11.30;;;;;;;5.66;67.43;101996.91;5074752;28;20774;-80
2022/01/24 12:21:37;;;;;;;12.32;11.05;;;;;;;5.68;68.23;101997.59;5099020;28;20405;-79
2022/01/24 12:24:06;;;;;;;12.80;11.20;;;;;;;5.71;68.14;101999.94;5087000;28;20880;-81
2022/01/24 12:26:34;;;;;;;12.85;11.20;;;;;;;5.71;67.40;101983.78;5075876;28;20965;-81
2022/01/24 12:29:03;;;;;;;12.30;11.10;;;;;;;5.77;68.02;101987.63;5096177;28;20396;-81
2022/01/24 12:31:45;;;;;;;13.45;10.93;;;;;;;5.80;68.04;101995.34;5103261;27;20398;-80
2022/01/24 12:34:21;;;;;;;12.57;10.82;;;;;;;5.83;67.63;101983.41;5090624;28;20398;-80
2022/01/24 12:36:51;;;;;;;12.32;11.10;;;;;;;5.89;67.84;101985.41;5077149;28;20392;-80
2022/01/24 12:39:19;;;;;;;12.43;10.32;;;;;;;5.88;67.16;101976.50;5087869;28;20765;-81
2022/01/24 12:41:51;;;;;;;12.37;10.60;;;;;;;5.90;67.48;101973.63;5095050;28;20491;-82
2022/01/24 12:47:08;;;;;;;15.85;10.63;;;;;;;5.90;67.47;101976.31;5087936;28;20408;-79
2022/01/24 12:49:34;;;;;;;11.75;10.23;;;;;;;5.87;67.59;101972.13;5077957;28;20400;-82
2022/01/24 12:52:02;;;;;;;14.88;11.27;;;;;;;5.87;67.24;101968.59;5091365;28;20448;-80
2022/01/24 12:54:29;;;;;;;11.60;10.45;;;;;;;5.89;67.88;101971.97;5081799;28;20500;-80
2022/01/24 12:57:06;;;;;;;11.10;10.00;;;;;;;5.95;67.81;101968.56;5081064;28;20398;-79
2022/01/24 12:59:33;;;;;;;12.40;10.60;;;;;;;5.95;67.56;101972.09;5083938;28;20455;-78
2022/01/24 13:02:01;;;;;;;11.75;9.85;;;;;;;5.97;67.63;101959.28;5074576;28;20392;-79
2022/01/24 13:04:38;;;;;;;12.70;10.15;;;;;;;5.98;67.61;101955.59;5117803;27;20390;-79
2022/01/24 13:07:13;;;;;;;10.93;9.82;;;;;;;5.97;67.83;101963.81;5084230;28;20732;-80
2022/01/24 13:09:39;;;;;;;16.10;10.60;;;;;;;6.00;67.83;101956.22;5084639;28;20490;-79
2022/01/24 13:12:08;;;;;;;13.03;10.70;;;;;;;6.00;67.87;101958.94;5086917;28;20511;-79
2022/01/24 13:14:49;;;;;;;12.43;10.80;;;;;;;6.04;67.71;101951.34;5082185;28;20746;-79